Time;durP1;ratioP1;P1;durP2;ratioP2;P2;SDS_P1;SDS_P2;PMS_P1;PMS_P2;Temp;Humidity;BMP_temperature;BMP_pressure;BME280_temperature;BME280_humidity;BME280_pressure;Samples;Min_cycle;Max_cycle;Signal;HPM_P1;HPM_P2
2022/06/15 00:00:06;;;;;;;5.83;2.40;;;15.40;99.90;;;;;;5092927;28;20228;-67
2022/06/15 00:02:33;;;;;;;4.50;2.33;;;15.40;99.90;;;;;;5092449;28;20253;-66
2022/06/15 00:05:01;;;;;;;6.53;2.90;;;15.30;99.90;;;;;;5092707;28;20287;-66
2022/06/15 00:07:28;;;;;;;5.73;2.30;;;15.30;99.90;;;;;;5092478;28;20303;-67
2022/06/15 00:09:55;;;;;;;4.17;2.60;;;15.30;99.90;;;;;;5092522;28;20283;-67
2022/06/15 00:12:22;;;;;;;5.70;2.73;;;15.30;99.90;;;;;;5091958;28;20234;-66
2022/06/15 00:14:49;;;;;;;4.10;2.70;;;15.30;99.90;;;;;;5093010;28;20721;-68
2022/06/15 00:17:15;;;;;;;5.83;3.10;;;15.30;99.90;;;;;;5092602;28;20305;-66
2022/06/15 00:19:42;;;;;;;4.40;2.70;;;15.30;99.90;;;;;;5092392;28;20299;-65
2022/06/15 00:22:11;;;;;;;3.60;2.50;;;15.20;99.90;;;;;;5092707;28;20311;-67
2022/06/15 00:24:38;;;;;;;5.73;2.90;;;15.10;99.90;;;;;;5092378;28;20257;-67
2022/06/15 00:27:06;;;;;;;4.63;2.77;;;15.10;99.90;;;;;;5092793;28;20208;-67
2022/06/15 00:29:37;;;;;;;6.83;3.30;;;15.10;99.90;;;;;;5092225;28;20204;-67
2022/06/15 00:32:05;;;;;;;5.97;2.80;;;15.00;99.90;;;;;;5092742;28;20194;-67
2022/06/15 00:34:32;;;;;;;8.60;3.13;;;14.90;99.90;;;;;;5092480;28;20290;-66
2022/06/15 00:37:00;;;;;;;4.97;2.90;;;14.90;99.90;;;;;;5092449;28;20204;-67
2022/06/15 00:39:29;;;;;;;6.17;2.90;;;14.80;99.90;;;;;;5092300;28;20215;-66
2022/06/15 00:41:56;;;;;;;6.40;2.97;;;14.70;99.90;;;;;;5092425;28;20219;-66
2022/06/15 00:44:33;;;;;;;6.63;3.10;;;14.70;99.90;;;;;;5092232;28;20726;-66
2022/06/15 00:47:03;;;;;;;6.17;3.37;;;14.70;99.90;;;;;;5092215;28;20203;-67
2022/06/15 00:49:32;;;;;;;4.83;3.27;;;14.70;99.90;;;;;;5091811;28;20219;-66
2022/06/15 00:52:04;;;;;;;6.50;3.43;;;14.60;99.90;;;;;;5092406;28;20291;-67
2022/06/15 00:54:33;;;;;;;5.43;2.77;;;14.50;99.90;;;;;;5091942;28;20589;-68
2022/06/15 00:57:02;;;;;;;5.27;2.80;;;14.50;99.90;;;;;;5092107;28;20199;-66
2022/06/15 00:59:37;;;;;;;5.27;2.97;;;14.50;99.90;;;;;;5091885;28;20287;-66
2022/06/15 01:02:04;;;;;;;5.70;3.10;;;14.40;99.90;;;;;;5092079;28;20237;-65
2022/06/15 01:04:41;;;;;;;4.70;2.90;;;14.40;99.90;;;;;;5091905;28;20314;-66
2022/06/15 01:07:21;;;;;;;5.33;2.80;;;14.40;99.90;;;;;;5091964;28;20192;-66
2022/06/15 01:09:57;;;;;;;4.77;3.00;;;14.40;99.90;;;;;;5092118;28;20194;-66
2022/06/15 01:12:31;;;;;;;4.10;2.97;;;14.40;99.90;;;;;;5091437;28;20278;-67
2022/06/15 01:15:11;;;;;;;5.33;2.90;;;14.40;99.90;;;;;;5091799;28;20584;-66
2022/06/15 01:17:51;;;;;;;3.77;2.73;;;14.30;99.90;;;;;;5089960;28;20202;-67
2022/06/15 01:20:41;;;;;;;4.50;2.70;;;14.30;99.90;;;;;;5091128;28;20644;-67
2022/06/15 01:23:53;;;;;;;4.27;2.70;;;14.30;99.90;;;;;;5091864;28;20193;-65
2022/06/15 01:27:05;;;;;;;4.93;2.87;;;14.20;99.90;;;;;;5060994;28;20292;-66
2022/06/15 01:30:16;;;;;;;4.03;2.70;;;14.10;99.90;;;;;;5089436;28;20291;-67
2022/06/15 01:32:50;;;;;;;7.50;3.00;;;14.00;99.90;;;;;;5091401;28;20188;-66
2022/06/15 01:35:27;;;;;;;4.70;2.57;;;14.00;99.90;;;;;;5091422;28;20299;-66
2022/06/15 01:37:58;;;;;;;5.00;2.73;;;13.90;99.90;;;;;;5091210;28;20677;-67
2022/06/15 01:40:33;;;;;;;4.40;2.53;;;13.90;99.90;;;;;;5090989;28;20212;-66
2022/06/15 01:43:04;;;;;;;4.57;2.30;;;13.90;99.90;;;;;;5091353;28;20551;-65
2022/06/15 01:45:36;;;;;;;4.23;2.63;;;13.80;99.90;;;;;;5091435;28;20274;-66
2022/06/15 01:48:06;;;;;;;3.50;2.40;;;13.80;99.90;;;;;;5091174;28;20615;-66
2022/06/15 01:50:37;;;;;;;4.40;2.43;;;13.80;99.90;;;;;;5091471;28;20188;-66
2022/06/15 01:53:11;;;;;;;5.97;2.83;;;13.80;99.90;;;;;;5091750;28;20192;-64
2022/06/15 01:55:43;;;;;;;4.17;2.67;;;13.70;99.90;;;;;;5091502;28;20550;-65
2022/06/15 01:58:11;;;;;;;3.73;2.60;;;13.70;99.90;;;;;;5090619;28;20885;-66
2022/06/15 02:00:39;;;;;;;6.07;2.80;;;13.70;99.90;;;;;;5091319;28;20246;-67
2022/06/15 02:03:12;;;;;;;6.97;2.93;;;13.60;99.90;;;;;;5090985;28;20307;-66
2022/06/15 02:05:45;;;;;;;4.63;2.57;;;13.50;99.90;;;;;;5091120;28;20200;-66
2022/06/15 02:08:18;;;;;;;5.40;2.47;;;13.50;99.90;;;;;;5094575;28;20188;-66
2022/06/15 02:10:52;;;;;;;4.80;2.40;;;13.50;99.90;;;;;;5094931;28;20195;-66
2022/06/15 02:13:24;;;;;;;4.13;2.47;;;13.60;99.90;;;;;;5095083;28;20282;-67
2022/06/15 02:15:58;;;;;;;4.33;2.50;;;13.70;99.90;;;;;;5095146;28;20228;-65
2022/06/15 02:18:28;;;;;;;8.97;2.77;;;13.70;99.90;;;;;;5094632;28;20195;-66
2022/06/15 02:21:00;;;;;;;5.10;3.30;;;13.80;99.90;;;;;;5094922;28;20234;-66
2022/06/15 02:23:30;;;;;;;4.77;2.50;;;13.90;99.90;;;;;;5074455;28;20193;-66
2022/06/15 02:25:58;;;;;;;7.10;2.47;;;13.90;99.90;;;;;;5074590;28;20288;-65
2022/06/15 02:28:30;;;;;;;4.03;2.10;;;14.00;99.90;;;;;;5074410;28;20212;-67
2022/06/15 02:30:58;;;;;;;3.40;2.47;;;14.00;99.90;;;;;;5074231;28;20279;-65
2022/06/15 02:33:28;;;;;;;4.63;2.20;;;14.00;99.90;;;;;;5094618;28;20207;-65
2022/06/15 02:35:56;;;;;;;5.23;2.40;;;14.00;99.90;;;;;;5094702;28;20208;-65
2022/06/15 02:38:23;;;;;;;4.13;2.30;;;14.00;99.90;;;;;;5094573;28;20211;-67
2022/06/15 02:40:50;;;;;;;4.83;2.57;;;14.00;99.90;;;;;;5094977;28;20223;-65
2022/06/15 02:43:21;;;;;;;8.63;2.30;;;14.10;99.90;;;;;;5094201;28;20231;-66
2022/06/15 02:45:50;;;;;;;4.07;2.03;;;14.10;99.90;;;;;;5094414;28;20199;-65
2022/06/15 02:48:20;;;;;;;5.17;2.63;;;14.10;99.90;;;;;;5094087;28;20308;-65
2022/06/15 02:50:53;;;;;;;4.43;2.50;;;14.20;99.90;;;;;;5094289;28;20196;-66
2022/06/15 02:53:23;;;;;;;5.50;3.20;;;14.30;99.90;;;;;;5093885;28;20197;-66
2022/06/15 02:55:52;;;;;;;3.40;2.50;;;14.30;99.90;;;;;;5094510;28;20566;-67
2022/06/15 02:58:25;;;;;;;5.17;2.73;;;14.30;99.90;;;;;;5093700;28;20236;-67
2022/06/15 03:00:52;;;;;;;3.90;2.47;;;14.30;99.90;;;;;;5094404;28;20247;-68
2022/06/15 03:03:22;;;;;;;4.70;2.53;;;14.30;99.90;;;;;;5093446;28;20204;-65
2022/06/15 03:05:49;;;;;;;4.20;2.60;;;14.40;99.90;;;;;;5093979;28;20188;-66
2022/06/15 03:08:17;;;;;;;4.80;2.23;;;14.40;99.90;;;;;;5093969;28;20290;-65
2022/06/15 03:10:44;;;;;;;4.50;2.70;;;14.40;99.90;;;;;;5093901;28;20200;-67
2022/06/15 03:13:12;;;;;;;7.00;2.83;;;14.40;99.90;;;;;;5094065;28;20227;-67
2022/06/15 03:15:39;;;;;;;3.33;2.50;;;14.40;99.90;;;;;;5093790;28;20739;-65
2022/06/15 03:18:06;;;;;;;5.03;2.50;;;14.50;99.90;;;;;;5093931;28;20630;-67
2022/06/15 03:20:34;;;;;;;2.83;2.20;;;14.60;99.90;;;;;;5093916;28;20203;-70
2022/06/15 03:23:01;;;;;;;5.57;2.60;;;14.70;99.90;;;;;;5093406;28;20261;-66
2022/06/15 03:25:28;;;;;;;3.43;2.40;;;14.80;99.90;;;;;;5093467;28;20208;-66
2022/06/15 03:27:55;;;;;;;6.80;3.47;;;14.80;99.90;;;;;;5093635;28;20253;-67
2022/06/15 03:30:22;;;;;;;7.23;2.30;;;14.80;99.90;;;;;;5093519;28;20234;-66
2022/06/15 03:32:49;;;;;;;5.13;2.40;;;14.90;99.90;;;;;;5093686;28;20283;-67
2022/06/15 03:35:16;;;;;;;3.97;2.40;;;14.90;99.90;;;;;;5093523;28;20276;-67
2022/06/15 03:37:45;;;;;;;6.20;2.73;;;15.00;99.90;;;;;;5093662;28;20828;-67
2022/06/15 03:40:13;;;;;;;6.63;3.00;;;15.00;99.90;;;;;;5092886;28;20196;-67
2022/06/15 03:42:40;;;;;;;5.17;2.60;;;15.00;99.90;;;;;;5093525;28;20644;-67
2022/06/15 03:45:11;;;;;;;2.73;2.30;;;15.00;99.90;;;;;;5093057;28;20215;-67
2022/06/15 03:47:37;;;;;;;8.30;3.80;;;15.00;99.90;;;;;;5093433;28;20284;-66
2022/06/15 03:50:05;;;;;;;5.23;2.60;;;15.00;99.90;;;;;;5092484;28;20632;-65
2022/06/15 03:52:32;;;;;;;3.03;2.23;;;15.00;99.90;;;;;;5093196;28;20202;-65
2022/06/15 03:55:00;;;;;;;6.73;3.10;;;15.00;99.90;;;;;;5093063;28;20299;-66
2022/06/15 03:57:27;;;;;;;6.70;2.93;;;15.00;99.90;;;;;;5093256;28;20769;-66
2022/06/15 03:59:54;;;;;;;4.27;2.30;;;15.00;99.90;;;;;;5092403;28;20188;-68
2022/06/15 04:02:21;;;;;;;5.07;2.50;;;15.10;99.90;;;;;;5092870;28;20220;-65
2022/06/15 04:04:48;;;;;;;8.33;2.30;;;15.00;99.90;;;;;;5092858;28;20717;-66
2022/06/15 04:10:00;;;;;;;4.27;2.27;;;15.20;99.90;;;;;;5092078;28;20285;-66
2022/06/15 04:12:27;;;;;;;5.20;2.30;;;15.20;99.90;;;;;;5092689;28;20243;-67
2022/06/15 04:14:54;;;;;;;2.77;2.30;;;15.30;99.90;;;;;;5092253;28;20220;-65
2022/06/15 04:17:21;;;;;;;2.60;2.40;;;15.30;99.90;;;;;;5092665;28;20234;-66
2022/06/15 04:20:31;;;;;;;2.90;2.23;;;15.30;99.90;;;;;;5092137;28;20311;-66
2022/06/15 04:22:35;;;;;;;3.83;2.63;;;15.30;99.90;;;;;;5092503;28;20234;-67
2022/06/15 04:25:04;;;;;;;4.37;2.20;;;15.30;99.90;;;;;;5092422;28;20692;-66
2022/06/15 04:27:32;;;;;;;3.90;2.30;;;15.30;99.90;;;;;;5092353;28;20265;-67
2022/06/15 04:29:59;;;;;;;5.63;2.40;;;15.30;99.90;;;;;;5091624;28;20581;-66
2022/06/15 04:32:26;;;;;;;10.73;2.60;;;15.30;99.90;;;;;;5092663;28;20291;-67
2022/06/15 04:34:53;;;;;;;5.33;2.40;;;15.30;99.90;;;;;;5092382;28;20685;-66
2022/06/15 04:37:20;;;;;;;5.43;2.73;;;15.30;99.90;;;;;;5092311;28;20204;-66
2022/06/15 04:39:47;;;;;;;5.27;2.73;;;15.30;99.90;;;;;;5092121;28;20287;-66
2022/06/15 04:42:16;;;;;;;3.27;2.10;;;15.40;99.90;;;;;;5091434;28;20216;-66
2022/06/15 04:44:42;;;;;;;2.97;2.10;;;15.50;99.90;;;;;;5092079;28;20211;-67
2022/06/15 04:47:10;;;;;;;5.00;2.30;;;15.50;99.90;;;;;;5092307;28;20211;-66
2022/06/15 04:49:37;;;;;;;8.67;5.03;;;15.60;99.90;;;;;;5092086;28;20204;-66
2022/06/15 04:52:04;;;;;;;10.93;2.87;;;15.60;99.90;;;;;;5091796;28;20635;-66
2022/06/15 04:54:32;;;;;;;4.07;2.07;;;15.70;99.90;;;;;;5092252;28;20295;-68
2022/06/15 04:56:59;;;;;;;2.90;2.00;;;15.70;99.90;;;;;;5091914;28;20204;-66
2022/06/15 04:59:27;;;;;;;5.60;2.57;;;15.70;99.90;;;;;;5092397;28;20737;-67
2022/06/15 05:01:55;;;;;;;6.03;2.33;;;15.80;99.90;;;;;;5090956;28;20258;-68
2022/06/15 05:04:22;;;;;;;5.07;2.17;;;15.80;99.90;;;;;;5091362;28;20241;-66
2022/06/15 05:06:49;;;;;;;3.63;2.20;;;15.90;99.90;;;;;;5091773;28;20678;-65
2022/06/15 05:09:16;;;;;;;3.63;2.23;;;15.90;99.90;;;;;;5091945;28;20294;-65
2022/06/15 05:11:43;;;;;;;5.07;2.10;;;15.90;99.90;;;;;;5091542;28;20290;-67
2022/06/15 05:14:11;;;;;;;5.47;2.20;;;15.90;99.90;;;;;;5091495;28;20291;-67
2022/06/15 05:16:39;;;;;;;5.27;2.20;;;16.00;99.90;;;;;;5091192;28;20310;-66
2022/06/15 05:19:06;;;;;;;6.10;2.27;;;16.00;99.90;;;;;;5091800;28;20680;-67
2022/06/15 05:21:38;;;;;;;4.37;2.10;;;16.00;99.90;;;;;;5091586;28;20230;-67
2022/06/15 05:24:05;;;;;;;3.60;1.97;;;16.10;99.90;;;;;;5091321;28;20234;-68
2022/06/15 05:26:32;;;;;;;4.27;2.20;;;16.20;99.90;;;;;;5091760;28;20294;-66
2022/06/15 05:28:59;;;;;;;3.97;2.47;;;16.10;99.90;;;;;;5091750;28;20726;-67
2022/06/15 05:31:26;;;;;;;4.37;2.20;;;16.20;99.90;;;;;;5091765;28;20200;-66
2022/06/15 05:33:56;;;;;;;3.93;1.87;;;16.30;99.90;;;;;;5090776;28;20196;-66
2022/06/15 05:36:26;;;;;;;5.57;2.13;;;16.40;99.90;;;;;;5091062;28;20280;-65
2022/06/15 05:38:53;;;;;;;3.20;2.10;;;16.40;99.90;;;;;;5091270;28;20291;-67
2022/06/15 05:41:20;;;;;;;3.60;2.10;;;16.50;99.90;;;;;;5091833;28;20247;-66
2022/06/15 05:43:47;;;;;;;3.90;2.10;;;16.60;99.90;;;;;;5095224;28;20291;-69
2022/06/15 05:46:16;;;;;;;3.77;1.93;;;16.70;99.90;;;;;;5094881;28;20203;-67
2022/06/15 05:48:43;;;;;;;3.40;2.10;;;16.80;99.90;;;;;;5095207;28;20300;-67
2022/06/15 05:51:11;;;;;;;6.10;2.03;;;16.90;99.90;;;;;;5095791;28;20209;-64
2022/06/15 05:53:38;;;;;;;4.50;1.80;;;16.90;99.90;;;;;;5095071;28;20239;-66
2022/06/15 05:56:06;;;;;;;2.97;1.83;;;17.00;99.90;;;;;;5094882;28;20662;-66
2022/06/15 05:58:33;;;;;;;3.63;2.03;;;17.00;99.90;;;;;;5094724;28;20312;-66
2022/06/15 06:01:08;;;;;;;3.07;2.20;;;17.10;99.90;;;;;;5095582;28;20542;-67
2022/06/15 06:03:35;;;;;;;3.87;2.10;;;17.10;99.90;;;;;;5094515;28;20206;-66
2022/06/15 06:06:02;;;;;;;6.73;2.50;;;17.20;99.90;;;;;;5095017;28;20196;-67
2022/06/15 06:08:30;;;;;;;6.70;2.10;;;17.30;99.90;;;;;;5094875;28;20201;-66
2022/06/15 06:10:57;;;;;;;6.47;2.03;;;17.30;99.90;;;;;;5094773;28;20209;-66
2022/06/15 06:13:24;;;;;;;4.10;2.20;;;17.30;99.90;;;;;;5094846;28;20286;-66
2022/06/15 06:15:52;;;;;;;3.40;1.87;;;17.30;99.90;;;;;;5093525;28;20765;-67
2022/06/15 06:18:18;;;;;;;5.17;2.07;;;17.30;99.90;;;;;;5084371;28;20194;-66
2022/06/15 06:20:45;;;;;;;7.67;2.30;;;17.30;99.90;;;;;;5094575;28;20272;-67
2022/06/15 06:23:13;;;;;;;4.60;1.80;;;17.30;99.90;;;;;;5094970;28;20217;-67
2022/06/15 06:25:42;;;;;;;2.23;1.77;;;17.40;99.90;;;;;;5094323;28;20247;-66
2022/06/15 06:28:20;;;;;;;3.97;1.90;;;17.30;99.90;;;;;;5086665;28;20303;-75
2022/06/15 06:30:47;;;;;;;6.30;2.10;;;17.30;99.90;;;;;;5091213;28;20626;-75
2022/06/15 06:33:14;;;;;;;3.67;1.90;;;17.30;99.90;;;;;;5095046;28;20193;-75
2022/06/15 06:35:41;;;;;;;8.57;2.60;;;17.50;99.90;;;;;;5094971;28;20264;-75
2022/06/15 06:38:08;;;;;;;3.63;1.80;;;17.50;99.90;;;;;;5094671;28;20300;-77
2022/06/15 06:40:35;;;;;;;5.73;2.00;;;17.50;99.90;;;;;;5093188;28;20295;-75
2022/06/15 06:43:04;;;;;;;2.33;1.80;;;17.50;99.90;;;;;;5092662;28;20227;-76
2022/06/15 06:45:31;;;;;;;3.93;1.93;;;17.50;99.90;;;;;;5095181;28;20563;-75
2022/06/15 06:48:00;;;;;;;4.37;1.90;;;17.50;99.90;;;;;;5095405;28;20287;-75
2022/06/15 06:50:27;;;;;;;6.60;1.93;;;17.50;99.90;;;;;;5094790;28;20244;-74
2022/06/15 06:52:53;;;;;;;2.13;1.50;;;17.60;99.90;;;;;;5094507;28;20204;-75
2022/06/15 06:55:22;;;;;;;3.83;2.00;;;17.70;99.90;;;;;;5091321;28;20213;-74
2022/06/15 06:57:53;;;;;;;6.00;1.90;;;17.80;99.90;;;;;;5074326;28;20238;-75
2022/06/15 07:00:22;;;;;;;2.90;1.83;;;17.90;99.90;;;;;;5074903;28;20630;-75
2022/06/15 07:02:50;;;;;;;4.47;1.80;;;17.90;99.90;;;;;;5074496;28;20657;-75
2022/06/15 07:05:17;;;;;;;6.83;2.27;;;18.00;99.90;;;;;;5079159;28;20212;-75
2022/06/15 07:07:44;;;;;;;3.77;1.90;;;18.10;99.90;;;;;;5094144;28;20200;-75
2022/06/15 07:10:11;;;;;;;4.03;1.83;;;18.30;99.90;;;;;;5094303;28;20249;-76
2022/06/15 07:12:42;;;;;;;6.23;2.03;;;18.40;99.90;;;;;;5088672;28;20210;-75
2022/06/15 07:15:10;;;;;;;13.20;2.47;;;18.40;99.90;;;;;;5081100;28;20194;-75
2022/06/15 07:17:40;;;;;;;41.67;5.23;;;18.40;99.90;;;;;;5094157;28;20293;-76
2022/06/15 07:20:12;;;;;;;8.83;2.40;;;18.40;99.90;;;;;;5093000;28;20199;-77
2022/06/15 07:22:39;;;;;;;6.13;1.87;;;18.50;99.90;;;;;;5090026;28;20208;-79
2022/06/15 07:25:08;;;;;;;6.03;2.00;;;18.60;99.90;;;;;;5093995;28;20239;-78
2022/06/15 07:27:36;;;;;;;4.60;2.00;;;18.70;99.90;;;;;;5094090;28;20569;-75
2022/06/15 07:30:04;;;;;;;3.17;1.70;;;18.70;99.90;;;;;;5094346;28;20213;-74
2022/06/15 07:32:31;;;;;;;4.37;1.80;;;18.80;99.90;;;;;;5093998;28;20203;-75
2022/06/15 07:34:59;;;;;;;4.13;1.70;;;18.70;99.90;;;;;;5092749;28;20219;-75
2022/06/15 07:37:26;;;;;;;6.53;2.97;;;18.80;99.90;;;;;;5092165;28;20606;-75
2022/06/15 07:39:53;;;;;;;3.20;1.60;;;18.80;99.90;;;;;;5091914;28;20276;-76
2022/06/15 07:42:21;;;;;;;3.43;1.57;;;18.90;99.90;;;;;;5091387;28;20231;-78
2022/06/15 07:44:49;;;;;;;4.87;1.90;;;18.90;99.90;;;;;;5090430;28;20193;-74
2022/06/15 07:50:02;;;;;;;2.73;1.53;;;19.20;99.90;;;;;;5091833;28;20561;-76
2022/06/15 07:52:33;;;;;;;3.17;1.50;;;19.30;99.90;;;;;;5092618;28;20222;-75
2022/06/15 07:54:59;;;;;;;2.97;1.50;;;19.40;99.80;;;;;;5091558;28;20256;-72
2022/06/15 07:57:26;;;;;;;2.50;1.63;;;19.40;99.40;;;;;;5088221;28;20232;-75
2022/06/15 07:59:53;;;;;;;8.97;1.50;;;19.40;98.60;;;;;;5091841;28;20609;-73
2022/06/15 08:02:20;;;;;;;3.73;1.53;;;19.50;98.10;;;;;;5092041;28;20581;-73
2022/06/15 08:04:47;;;;;;;3.13;1.60;;;19.50;97.70;;;;;;5088522;28;20705;-74
2022/06/15 08:07:17;;;;;;;3.43;1.40;;;19.50;97.70;;;;;;5092725;28;20641;-75
2022/06/15 08:09:45;;;;;;;2.13;1.40;;;19.40;98.40;;;;;;5090987;28;20301;-73
2022/06/15 08:12:14;;;;;;;3.90;1.57;;;19.50;98.30;;;;;;5091884;28;20660;-72
2022/06/15 08:14:45;;;;;;;4.17;1.50;;;19.40;98.70;;;;;;5091741;28;20203;-74
2022/06/15 08:17:15;;;;;;;3.47;1.67;;;19.50;99.00;;;;;;5091164;28;20188;-77
2022/06/15 08:19:45;;;;;;;4.23;1.60;;;19.60;98.30;;;;;;5091317;28;20645;-76
2022/06/15 08:22:13;;;;;;;3.20;1.50;;;19.50;97.40;;;;;;5086701;28;20732;-75
2022/06/15 08:24:42;;;;;;;4.20;1.83;;;19.50;97.60;;;;;;5085395;28;20235;-76
2022/06/15 08:27:11;;;;;;;4.63;1.60;;;19.60;97.60;;;;;;5074056;28;20289;-75
2022/06/15 08:29:39;;;;;;;3.50;1.50;;;19.60;97.40;;;;;;5094742;28;20200;-76
2022/06/15 08:32:06;;;;;;;3.30;1.53;;;19.70;96.90;;;;;;5092610;28;20644;-74
2022/06/15 08:34:37;;;;;;;3.13;1.60;;;19.90;96.40;;;;;;5091155;28;20287;-74
2022/06/15 08:37:05;;;;;;;2.70;1.60;;;19.90;96.50;;;;;;5092895;28;20192;-74
2022/06/15 08:39:32;;;;;;;3.60;1.53;;;20.00;96.80;;;;;;5094210;28;20564;-77
2022/06/15 08:42:09;;;;;;;4.30;1.30;;;20.10;96.60;;;;;;5092978;28;20718;-75
2022/06/15 08:44:45;;;;;;;3.30;1.43;;;20.10;96.50;;;;;;5092373;28;20336;-77
2022/06/15 08:47:28;;;;;;;4.17;1.40;;;19.90;96.60;;;;;;5092874;28;20195;-72
2022/06/15 08:50:01;;;;;;;2.20;1.40;;;19.90;96.60;;;;;;5083797;28;20618;-73
2022/06/15 08:52:33;;;;;;;5.27;1.50;;;19.90;96.40;;;;;;5087331;28;20647;-72
2022/06/15 08:55:07;;;;;;;2.53;1.37;;;20.00;95.80;;;;;;5092174;28;20241;-77
2022/06/15 08:57:41;;;;;;;2.03;1.50;;;20.10;95.10;;;;;;5091326;28;20330;-73
2022/06/15 09:00:14;;;;;;;2.10;1.30;;;20.00;95.00;;;;;;5091839;28;20640;-73
2022/06/15 09:02:49;;;;;;;3.37;1.40;;;20.10;95.00;;;;;;5091846;28;20219;-72
2022/06/15 09:05:29;;;;;;;2.37;1.40;;;20.10;95.70;;;;;;5091557;28;20195;-73
2022/06/15 09:08:09;;;;;;;1.97;1.20;;;20.10;95.80;;;;;;5092050;28;20198;-73
2022/06/15 09:10:47;;;;;;;5.17;1.80;;;20.10;95.50;;;;;;5091558;28;20314;-71
2022/06/15 09:13:34;;;;;;;3.77;1.57;;;20.10;95.80;;;;;;5074630;28;20245;-72
2022/06/15 09:16:18;;;;;;;3.17;1.40;;;20.10;95.50;;;;;;5091557;28;20198;-71
2022/06/15 09:18:49;;;;;;;1.93;1.30;;;20.20;94.50;;;;;;5090419;28;20217;-72
2022/06/15 09:21:19;;;;;;;2.77;1.30;;;20.20;95.10;;;;;;5090825;28;20246;-77
2022/06/15 09:23:50;;;;;;;4.37;1.50;;;20.40;94.60;;;;;;5091913;28;20208;-75
2022/06/15 09:26:22;;;;;;;3.67;1.70;;;20.50;94.90;;;;;;5091332;28;20252;-75
2022/06/15 09:28:54;;;;;;;3.50;1.30;;;20.50;95.30;;;;;;5091374;28;20197;-75
2022/06/15 09:31:26;;;;;;;3.37;1.70;;;20.50;95.50;;;;;;5091919;28;20394;-77
2022/06/15 09:33:56;;;;;;;1.70;1.20;;;20.50;95.00;;;;;;5091807;28;20193;-75
2022/06/15 09:36:28;;;;;;;2.73;1.30;;;20.60;94.90;;;;;;5091454;28;20184;-75
2022/06/15 09:38:55;;;;;;;3.33;1.50;;;20.50;93.90;;;;;;5091812;28;20711;-74
2022/06/15 09:41:27;;;;;;;2.20;1.23;;;20.60;93.80;;;;;;5091632;28;20223;-76
2022/06/15 09:44:06;;;;;;;3.90;1.30;;;20.70;94.10;;;;;;5091510;28;20305;-75
2022/06/15 09:46:41;;;;;;;1.97;1.30;;;20.80;94.60;;;;;;5091982;28;20283;-75
2022/06/15 09:49:29;;;;;;;4.37;1.30;;;20.90;94.30;;;;;;5091722;28;20280;-74
2022/06/15 09:52:06;;;;;;;2.80;1.30;;;21.00;93.60;;;;;;5091528;28;20198;-75
2022/06/15 09:54:45;;;;;;;3.93;1.50;;;21.00;93.60;;;;;;5091700;28;20190;-75
2022/06/15 09:57:13;;;;;;;7.20;1.43;;;21.20;93.10;;;;;;5091783;28;20192;-75
2022/06/15 09:59:42;;;;;;;2.57;1.50;;;21.20;92.10;;;;;;5091500;28;20234;-76
2022/06/15 10:02:24;;;;;;;1.27;1.10;;;21.20;91.80;;;;;;5091512;28;20633;-75
2022/06/15 10:04:51;;;;;;;3.07;1.20;;;21.00;90.70;;;;;;5091248;28;20303;-74
2022/06/15 10:07:26;;;;;;;1.33;1.20;;;20.90;91.20;;;;;;5091272;28;20298;-74
2022/06/15 10:09:58;;;;;;;2.07;1.30;;;20.80;91.80;;;;;;5091163;28;20183;-74
2022/06/15 10:12:57;;;;;;;3.33;1.30;;;20.80;92.10;;;;;;5091678;28;20191;-77
2022/06/15 10:15:31;;;;;;;3.67;1.20;;;20.90;91.70;;;;;;5091973;28;20204;-75
2022/06/15 10:18:03;;;;;;;1.57;1.20;;;20.90;91.40;;;;;;5091930;28;20232;-75
2022/06/15 10:20:33;;;;;;;1.70;1.00;;;21.10;91.50;;;;;;5092071;28;20282;-75
2022/06/15 10:23:03;;;;;;;2.20;1.40;;;21.20;90.70;;;;;;5091186;28;20731;-77
2022/06/15 10:25:34;;;;;;;3.13;1.40;;;21.30;90.80;;;;;;5091833;28;20224;-76
2022/06/15 10:28:15;;;;;;;2.07;1.30;;;21.30;91.50;;;;;;5093497;28;20199;-75
2022/06/15 10:30:55;;;;;;;2.43;1.40;;;21.30;90.90;;;;;;5095690;28;20232;-76
2022/06/15 10:33:22;;;;;;;1.80;1.30;;;21.40;89.10;;;;;;5095515;28;20245;-75
2022/06/15 10:35:56;;;;;;;2.43;1.20;;;21.50;88.30;;;;;;5095764;28;20302;-75
2022/06/15 10:38:25;;;;;;;1.87;1.20;;;21.60;88.30;;;;;;5096211;28;20198;-75
2022/06/15 10:41:45;;;;;;;4.50;1.43;;;21.70;89.10;;;;;;5095369;28;20277;-75
2022/06/15 10:43:48;;;;;;;1.73;1.10;;;21.80;90.10;;;;;;5094982;28;20255;-75
2022/06/15 10:46:18;;;;;;;2.83;1.27;;;21.80;90.50;;;;;;5095156;28;20633;-74
2022/06/15 10:48:47;;;;;;;2.57;1.40;;;21.90;90.90;;;;;;5094936;28;20332;-74
2022/06/15 10:51:17;;;;;;;2.57;1.77;;;21.70;90.40;;;;;;5094803;28;20211;-75
2022/06/15 10:53:47;;;;;;;2.40;1.17;;;21.90;90.60;;;;;;5094956;28;20291;-74
2022/06/15 11:02:13;;;;;;;2.03;1.37;;;22.10;87.10;;;;;;5073624;28;20201;-76
2022/06/15 11:04:54;;;;;;;4.57;1.50;;;22.00;86.90;;;;;;5094342;28;20268;-74
2022/06/15 11:07:29;;;;;;;5.27;1.37;;;21.90;86.90;;;;;;5094724;28;20599;-75
2022/06/15 11:10:20;;;;;;;2.53;1.30;;;21.90;87.70;;;;;;5095113;28;20291;-76
2022/06/15 11:12:50;;;;;;;2.13;1.30;;;21.60;89.10;;;;;;5094812;28;20266;-77
2022/06/15 11:18:33;;;;;;;2.57;1.20;;;21.40;90.00;;;;;;5086709;28;20264;-71
2022/06/15 11:21:07;;;;;;;2.47;1.20;;;21.20;90.40;;;;;;5094624;28;20221;-71
2022/06/15 11:23:50;;;;;;;1.53;1.07;;;21.30;90.60;;;;;;5094262;28;20297;-73
2022/06/15 11:29:48;;;;;;;1.83;1.20;;;21.50;90.80;;;;;;5031227;28;20224;-71
2022/06/15 11:32:23;;;;;;;2.93;1.40;;;21.70;88.80;;;;;;5031416;28;20262;-70
2022/06/15 11:34:59;;;;;;;3.00;1.20;;;21.70;88.90;;;;;;5030902;28;20579;-69
2022/06/15 11:37:32;;;;;;;1.20;1.10;;;21.80;88.80;;;;;;5031288;28;20189;-72
2022/06/15 11:40:07;;;;;;;3.40;1.20;;;21.90;88.80;;;;;;5029561;28;20282;-72
2022/06/15 11:42:34;;;;;;;2.73;1.40;;;21.90;89.40;;;;;;5030908;28;20218;-70
2022/06/15 11:45:01;;;;;;;1.10;1.00;;;22.00;87.70;;;;;;5031038;28;20255;-74
2022/06/15 11:47:42;;;;;;;2.70;1.10;;;22.00;86.00;;;;;;5031735;28;20665;-71
2022/06/15 11:50:19;;;;;;;2.80;1.37;;;22.00;85.70;;;;;;5030959;28;20839;-72
2022/06/15 11:53:00;;;;;;;4.17;1.30;;;22.10;86.20;;;;;;5030685;28;20623;-72
2022/06/15 11:55:39;;;;;;;3.10;1.20;;;22.10;84.30;;;;;;5031028;28;20217;-78
2022/06/15 11:58:31;;;;;;;2.73;1.20;;;22.20;85.30;;;;;;5031236;28;20272;-77
2022/06/15 12:01:14;;;;;;;2.77;1.00;;;22.20;86.30;;;;;;5074752;28;20272;-79
2022/06/15 12:04:13;;;;;;;1.20;1.10;;;22.20;85.60;;;;;;5094667;28;20622;-78
2022/06/15 12:06:57;;;;;;;3.37;1.47;;;22.00;86.10;;;;;;5093151;28;20210;-72
2022/06/15 12:09:36;;;;;;;2.10;1.10;;;22.00;87.20;;;;;;5093253;28;20454;-71
2022/06/15 12:14:59;;;;;;;3.07;1.37;;;22.10;87.00;;;;;;5093136;28;20194;-71
2022/06/15 12:17:32;;;;;;;2.13;1.30;;;22.10;86.30;;;;;;5092993;28;20242;-72
2022/06/15 12:20:07;;;;;;;5.40;1.77;;;21.80;86.80;;;;;;5092896;28;20245;-73
2022/06/15 12:22:42;;;;;;;3.90;1.30;;;21.80;86.90;;;;;;5092567;28;20240;-72
2022/06/15 12:25:21;;;;;;;2.07;1.40;;;21.80;87.80;;;;;;5092114;28;20575;-75
2022/06/15 12:27:56;;;;;;;1.77;1.20;;;21.80;88.00;;;;;;5093395;28;20694;-73
2022/06/15 12:30:37;;;;;;;2.17;1.20;;;21.90;88.40;;;;;;5091764;28;20296;-73
2022/06/15 12:33:13;;;;;;;3.70;1.40;;;22.00;88.10;;;;;;5092496;28;20203;-71
2022/06/15 12:35:46;;;;;;;1.80;1.40;;;22.10;87.60;;;;;;5091350;28;20572;-72
2022/06/15 12:38:23;;;;;;;3.10;1.30;;;22.10;86.60;;;;;;5082658;28;20570;-71
2022/06/15 12:40:53;;;;;;;2.77;1.30;;;22.10;86.50;;;;;;5092872;28;20252;-76
2022/06/15 12:43:31;;;;;;;1.50;1.10;;;22.20;86.90;;;;;;5092740;28;20530;-73
2022/06/15 12:46:08;;;;;;;2.17;1.33;;;22.30;87.30;;;;;;5092051;28;20237;-74
2022/06/15 12:48:50;;;;;;;3.23;1.40;;;22.40;86.60;;;;;;5092164;28;20219;-73
2022/06/15 12:51:22;;;;;;;1.23;1.13;;;22.40;86.00;;;;;;5091940;28;20223;-74
2022/06/15 12:54:01;;;;;;;1.70;1.30;;;22.40;86.20;;;;;;5092088;28;20277;-73
2022/06/15 12:56:35;;;;;;;3.97;1.40;;;22.50;86.70;;;;;;5091609;28;20185;-74
2022/06/15 12:59:14;;;;;;;3.33;1.57;;;22.40;86.70;;;;;;5091354;28;20289;-73
2022/06/15 13:01:45;;;;;;;3.50;1.40;;;22.40;86.70;;;;;;5091141;28;20298;-74
2022/06/15 13:04:20;;;;;;;2.17;1.20;;;22.40;85.90;;;;;;5092454;28;20298;-74
2022/06/15 13:07:07;;;;;;;3.07;1.30;;;22.40;87.10;;;;;;5088812;28;20184;-70
2022/06/15 13:09:36;;;;;;;1.60;1.20;;;22.30;86.90;;;;;;5071100;28;20296;-73
2022/06/15 13:12:08;;;;;;;2.07;1.27;;;22.30;85.80;;;;;;5085558;28;20249;-74
2022/06/15 13:14:38;;;;;;;1.53;1.40;;;22.40;86.40;;;;;;5092189;28;20284;-74
2022/06/15 13:17:13;;;;;;;4.70;1.33;;;22.40;86.60;;;;;;5091079;28;20282;-74
2022/06/15 13:19:42;;;;;;;2.83;1.40;;;22.50;86.30;;;;;;5091114;28;20282;-72
2022/06/15 13:22:15;;;;;;;8.10;1.60;;;22.50;85.40;;;;;;5090970;28;20207;-73
2022/06/15 13:24:53;;;;;;;4.33;1.17;;;22.60;85.00;;;;;;5091080;28;20561;-69
2022/06/15 13:27:24;;;;;;;2.80;1.60;;;22.70;85.70;;;;;;5091763;28;20270;-70